createdAt,value
2023-05-13T00:00:28.878Z,22.27
2023-05-13T00:02:57.141Z,24.23
2023-05-13T00:05:26.581Z,27.60
2023-05-13T00:07:54.554Z,26.53
2023-05-13T00:10:22.887Z,27.17
2023-05-13T00:12:51.339Z,24.50
2023-05-13T00:15:19.479Z,29.90
2023-05-13T00:17:47.480Z,30.07
2023-05-13T00:20:15.723Z,28.03
2023-05-13T00:22:45.105Z,31.50
2023-05-13T00:25:13.082Z,25.70
2023-05-13T00:27:41.151Z,27.47
2023-05-13T00:30:10.212Z,27.50
2023-05-13T00:32:38.351Z,25.00
2023-05-13T00:35:07.105Z,26.17
2023-05-13T00:37:35.181Z,26.43
2023-05-13T00:40:05.154Z,20.53
2023-05-13T00:42:33.193Z,25.23
2023-05-13T00:45:02.251Z,25.40
2023-05-13T00:47:30.302Z,21.10
2023-05-13T00:49:59.190Z,27.50
2023-05-13T00:52:27.221Z,26.70
2023-05-13T00:54:55.174Z,22.60
2023-05-13T00:57:24.627Z,24.47
2023-05-13T00:59:53.019Z,24.60
2023-05-13T01:02:27.925Z,22.47
2023-05-13T01:05:10.922Z,26.23
2023-05-13T01:07:50.858Z,22.20
2023-05-13T01:10:27.313Z,22.77
2023-05-13T01:13:04.995Z,24.23
2023-05-13T01:15:33.936Z,26.00
2023-05-13T01:18:06.981Z,27.53
2023-05-13T01:20:35.688Z,27.20
2023-05-13T01:23:06.258Z,28.10
2023-05-13T01:25:34.294Z,25.03
2023-05-13T01:28:02.734Z,25.87
2023-05-13T01:30:32.345Z,27.20
2023-05-13T01:33:01.214Z,25.33
2023-05-13T01:35:30.321Z,26.20
2023-05-13T01:37:59.453Z,25.03
2023-05-13T01:40:32.407Z,25.60
2023-05-13T01:43:05.849Z,26.57
2023-05-13T01:45:34.865Z,26.90
2023-05-13T01:48:03.478Z,23.93
2023-05-13T01:50:41.688Z,26.57
2023-05-13T01:53:11.126Z,27.10
2023-05-13T01:55:41.581Z,25.07
2023-05-13T01:58:10.697Z,27.97
2023-05-13T02:00:38.905Z,31.13
2023-05-13T02:03:07.119Z,26.80
2023-05-13T02:05:35.200Z,24.57
2023-05-13T02:08:08.164Z,26.70
2023-05-13T02:10:36.316Z,25.57
2023-05-13T02:13:05.847Z,26.80
2023-05-13T02:15:33.843Z,31.20
2023-05-13T02:18:01.890Z,24.87
2023-05-13T02:20:31.347Z,30.00
2023-05-13T02:22:59.459Z,27.93
2023-05-13T02:25:29.331Z,25.57
2023-05-13T02:27:57.365Z,26.23
2023-05-13T02:30:27.489Z,26.10
2023-05-13T02:32:56.334Z,25.97
2023-05-13T02:35:29.488Z,27.93
2023-05-13T02:37:57.814Z,25.40
2023-05-13T02:40:25.979Z,23.73
2023-05-13T02:42:54.393Z,30.57
2023-05-13T02:45:31.280Z,26.53
2023-05-13T02:47:59.353Z,30.43
2023-05-13T02:50:27.446Z,25.63
2023-05-13T02:52:57.615Z,29.70
2023-05-13T02:55:26.821Z,27.40
2023-05-13T02:57:56.806Z,27.60
2023-05-13T03:00:26.013Z,28.70
2023-05-13T03:02:55.943Z,28.30
2023-05-13T03:05:24.242Z,34.37
2023-05-13T03:07:52.316Z,29.27
2023-05-13T03:10:21.523Z,30.20
2023-05-13T03:12:49.726Z,33.80
2023-05-13T03:15:18.132Z,30.47
2023-05-13T03:17:46.338Z,29.67
2023-05-13T03:20:16.507Z,30.50
2023-05-13T03:22:44.764Z,29.60
2023-05-13T03:25:13.457Z,28.27
2023-05-13T03:27:46.181Z,31.17
2023-05-13T03:30:15.195Z,28.03
2023-05-13T03:32:49.960Z,26.67
2023-05-13T03:35:19.705Z,25.13
2023-05-13T03:37:48.714Z,27.00
2023-05-13T03:40:17.742Z,27.77
2023-05-13T03:42:46.124Z,27.47
2023-05-13T03:45:14.309Z,25.63
2023-05-13T03:47:44.780Z,25.87
2023-05-13T03:50:17.231Z,28.53
2023-05-13T03:52:47.707Z,30.70
2023-05-13T03:55:17.243Z,28.43
2023-05-13T03:57:51.010Z,27.27
2023-05-13T04:00:22.197Z,22.33
2023-05-13T04:02:50.589Z,25.47
2023-05-13T04:05:18.970Z,28.70
2023-05-13T04:07:49.211Z,33.03
2023-05-13T04:10:17.667Z,44.97
2023-05-13T04:12:45.679Z,35.37
2023-05-13T04:15:13.794Z,31.37
2023-05-13T04:17:41.825Z,27.30
2023-05-13T04:20:10.836Z,28.73
2023-05-13T04:22:38.962Z,30.33
2023-05-13T04:25:09.148Z,27.23
2023-05-13T04:27:37.217Z,25.97
2023-05-13T04:30:13.733Z,25.77
2023-05-13T04:32:43.334Z,26.97
2023-05-13T04:35:12.798Z,29.27
2023-05-13T04:37:42.506Z,27.07
2023-05-13T04:40:16.370Z,25.93
2023-05-13T04:42:44.390Z,26.03
2023-05-13T04:45:12.658Z,24.43
2023-05-13T04:47:40.680Z,25.87
2023-05-13T04:50:09.231Z,25.90
2023-05-13T04:52:37.907Z,26.57
2023-05-13T04:55:06.885Z,25.97
2023-05-13T04:57:36.647Z,22.80
2023-05-13T05:00:06.086Z,24.07
2023-05-13T05:02:36.435Z,24.73
2023-05-13T05:05:05.226Z,22.47
2023-05-13T05:07:34.914Z,21.37
2023-05-13T05:10:03.099Z,19.30
2023-05-13T05:12:32.714Z,25.53
2023-05-13T05:15:02.149Z,22.10
2023-05-13T05:17:32.790Z,20.23
2023-05-13T05:20:03.551Z,20.70
2023-05-13T05:22:31.556Z,21.23
2023-05-13T05:24:59.883Z,19.27
2023-05-13T05:27:27.925Z,18.90
2023-05-13T05:29:56.799Z,18.70
2023-05-13T05:32:26.936Z,19.97
2023-05-13T05:34:55.435Z,17.60
2023-05-13T05:37:23.429Z,19.47
2023-05-13T05:39:52.598Z,24.63
2023-05-13T05:42:20.629Z,20.50
2023-05-13T05:44:49.105Z,19.40
2023-05-13T05:47:17.155Z,16.40
2023-05-13T05:49:47.386Z,21.60
2023-05-13T05:52:16.392Z,19.33
2023-05-13T05:54:45.069Z,15.00
2023-05-13T05:57:13.204Z,19.53
2023-05-13T05:59:41.511Z,18.27
2023-05-13T06:02:09.727Z,17.73
2023-05-13T06:04:37.917Z,20.93
2023-05-13T06:07:08.229Z,15.03
2023-05-13T06:09:36.326Z,18.10
2023-05-13T06:12:04.953Z,19.27
2023-05-13T06:14:34.190Z,19.13
2023-05-13T06:17:02.207Z,18.63
2023-05-13T06:19:31.114Z,22.10
2023-05-13T06:21:59.112Z,15.93
2023-05-13T06:24:28.534Z,17.00
2023-05-13T06:26:56.568Z,20.50
2023-05-13T06:29:24.520Z,15.33
2023-05-13T06:31:54.491Z,12.40
2023-05-13T06:34:22.495Z,14.50
2023-05-13T06:36:50.600Z,12.00
2023-05-13T06:39:18.943Z,15.07
2023-05-13T06:41:48.568Z,14.80
2023-05-13T06:44:17.995Z,15.87
2023-05-13T06:46:48.009Z,18.83
2023-05-13T06:49:16.153Z,13.07
2023-05-13T06:51:44.117Z,12.83
2023-05-13T06:54:12.144Z,17.03
2023-05-13T06:56:40.574Z,12.97
2023-05-13T06:59:10.400Z,9.67
2023-05-13T07:01:38.542Z,9.90
2023-05-13T07:04:06.927Z,10.57
2023-05-13T07:06:35.371Z,13.57
2023-05-13T07:09:08.186Z,12.77
2023-05-13T07:11:36.489Z,15.30
2023-05-13T07:14:04.677Z,9.47
2023-05-13T07:16:34.032Z,12.20
2023-05-13T07:19:02.184Z,12.37
2023-05-13T07:21:31.122Z,9.20
2023-05-13T07:23:59.183Z,9.57
2023-05-13T07:26:27.402Z,12.73
2023-05-13T07:28:55.447Z,10.13
2023-05-13T07:31:23.832Z,9.63
2023-05-13T07:33:53.324Z,12.50
2023-05-13T07:36:22.325Z,7.47
2023-05-13T07:38:50.832Z,8.17
2023-05-13T07:41:19.001Z,7.70
2023-05-13T07:43:47.032Z,8.53
2023-05-13T07:46:15.144Z,7.70
2023-05-13T07:48:43.260Z,10.53
2023-05-13T07:51:12.900Z,8.73
2023-05-13T07:53:40.893Z,11.77
2023-05-13T07:56:08.985Z,6.93
2023-05-13T07:58:37.804Z,9.17
2023-05-13T08:01:06.128Z,8.00
2023-05-13T08:03:34.249Z,10.53
2023-05-13T08:06:02.285Z,5.53
2023-05-13T08:08:31.932Z,14.87
2023-05-13T08:11:00.038Z,9.13
2023-05-13T08:13:28.008Z,7.40
2023-05-13T08:15:56.105Z,9.87
2023-05-13T08:18:24.552Z,8.30
2023-05-13T08:20:52.581Z,8.60
2023-05-13T08:23:20.851Z,8.10
2023-05-13T08:25:50.250Z,8.80
2023-05-13T08:28:18.268Z,9.40
2023-05-13T08:30:46.348Z,6.13
2023-05-13T08:33:14.374Z,6.47
2023-05-13T08:35:44.709Z,8.90
2023-05-13T08:38:12.922Z,8.67
2023-05-13T08:40:42.569Z,6.20
2023-05-13T08:43:14.717Z,6.33
2023-05-13T08:45:45.743Z,6.13
2023-05-13T08:48:15.813Z,5.67
2023-05-13T08:50:44.923Z,5.40
2023-05-13T08:53:13.881Z,5.35
2023-05-13T08:55:42.089Z,7.80
2023-05-13T08:58:11.864Z,4.93
2023-05-13T09:00:40.455Z,6.78
2023-05-13T09:03:09.290Z,6.32
2023-05-13T09:05:38.911Z,6.85
2023-05-13T09:08:09.843Z,4.53
2023-05-13T09:10:38.415Z,12.18
2023-05-13T09:13:07.188Z,9.48
2023-05-13T09:15:36.857Z,9.23
2023-05-13T09:18:06.533Z,6.03
2023-05-13T09:20:36.061Z,3.92
2023-05-13T09:23:05.217Z,7.32
2023-05-13T09:25:33.605Z,5.93
2023-05-13T09:28:03.861Z,7.07
2023-05-13T09:30:35.193Z,5.63
2023-05-13T09:33:10.106Z,8.32
2023-05-13T09:35:39.703Z,6.43
2023-05-13T09:38:15.754Z,6.60
2023-05-13T09:40:51.355Z,5.95
2023-05-13T09:43:20.206Z,3.45
2023-05-13T09:45:48.411Z,7.50
2023-05-13T09:48:19.249Z,4.95
2023-05-13T09:50:49.853Z,3.33
2023-05-13T09:53:18.085Z,4.93
2023-05-13T09:55:47.404Z,3.70
2023-05-13T09:58:15.947Z,3.85
2023-05-13T10:00:45.285Z,4.43
2023-05-13T10:03:14.045Z,5.88
2023-05-13T10:05:44.354Z,4.35
2023-05-13T10:08:13.991Z,5.50
2023-05-13T10:10:45.664Z,7.80
2023-05-13T10:13:16.143Z,3.22
2023-05-13T10:15:49.662Z,4.80
2023-05-13T10:18:18.265Z,3.25
2023-05-13T10:20:52.832Z,7.53
2023-05-13T10:23:22.516Z,4.00
2023-05-13T10:25:51.956Z,8.05
2023-05-13T10:28:21.444Z,3.00
2023-05-13T10:30:52.510Z,6.05
2023-05-13T10:33:21.217Z,4.80
2023-05-13T10:36:00.848Z,3.85
2023-05-13T10:38:42.450Z,4.15
2023-05-13T10:41:15.421Z,3.17
2023-05-13T10:43:43.510Z,3.05
2023-05-13T10:46:14.143Z,5.10
2023-05-13T10:48:43.635Z,2.65
2023-05-13T10:51:16.412Z,3.50
2023-05-13T10:53:48.274Z,4.25
2023-05-13T10:56:17.002Z,4.13
2023-05-13T10:58:57.830Z,4.32
2023-05-13T11:01:29.401Z,5.32
2023-05-13T11:03:59.633Z,4.13
2023-05-13T11:06:35.314Z,8.98
2023-05-13T11:09:06.815Z,3.00
2023-05-13T11:11:36.632Z,3.83
2023-05-13T11:14:17.838Z,5.60
2023-05-13T11:16:53.050Z,4.10
2023-05-13T11:19:23.062Z,3.90
2023-05-13T11:21:54.059Z,6.07
2023-05-13T11:24:22.985Z,3.75
2023-05-13T11:26:53.266Z,5.63
2023-05-13T11:29:32.311Z,6.28
2023-05-13T11:32:01.613Z,3.75
2023-05-13T11:34:30.069Z,7.05
2023-05-13T11:37:09.651Z,4.60
2023-05-13T11:39:40.346Z,7.90
2023-05-13T11:42:09.467Z,7.20
2023-05-13T11:44:38.928Z,5.35
2023-05-13T11:47:08.161Z,3.17
2023-05-13T11:49:38.795Z,6.60
2023-05-13T11:52:10.516Z,3.20
2023-05-13T11:54:44.038Z,4.97
2023-05-13T11:57:25.831Z,5.40
2023-05-13T11:59:58.568Z,4.75
2023-05-13T12:02:28.488Z,5.03
2023-05-13T12:05:05.443Z,4.90
2023-05-13T12:07:35.769Z,3.33
2023-05-13T12:10:05.429Z,4.57
2023-05-13T12:12:35.517Z,3.38
2023-05-13T12:15:05.530Z,4.28
2023-05-13T12:17:34.135Z,3.85
2023-05-13T12:20:11.366Z,3.50
2023-05-13T12:22:52.365Z,4.90
2023-05-13T12:25:40.012Z,8.75
2023-05-13T12:28:09.141Z,3.88
2023-05-13T12:30:38.225Z,3.58
2023-05-13T12:33:06.707Z,3.63
2023-05-13T12:35:34.929Z,2.63
2023-05-13T12:38:06.494Z,3.05
2023-05-13T12:40:35.426Z,5.22
2023-05-13T12:43:04.575Z,3.60
2023-05-13T12:45:34.101Z,2.38
2023-05-13T12:48:03.188Z,2.05
2023-05-13T12:50:31.490Z,4.55
2023-05-13T12:53:00.657Z,3.00
2023-05-13T12:55:30.223Z,2.70
2023-05-13T12:58:00.079Z,3.88
2023-05-13T13:00:28.335Z,3.65
2023-05-13T13:02:56.684Z,4.55
2023-05-13T13:05:25.640Z,1.92
2023-05-13T13:07:53.647Z,2.05
2023-05-13T13:10:21.691Z,3.35
2023-05-13T13:12:51.235Z,6.40
2023-05-13T13:15:19.268Z,2.53
2023-05-13T13:17:47.401Z,4.15
2023-05-13T13:20:15.430Z,3.25
2023-05-13T13:22:43.446Z,3.53
2023-05-13T13:25:11.784Z,3.45
2023-05-13T13:27:39.847Z,2.95
2023-05-13T13:30:10.245Z,4.13
2023-05-13T13:32:38.255Z,3.67
2023-05-13T13:35:06.808Z,2.22
2023-05-13T13:37:36.112Z,2.58
2023-05-13T13:40:05.048Z,3.10
2023-05-13T13:42:43.465Z,3.35
2023-05-13T13:45:14.943Z,4.28
2023-05-13T13:47:43.319Z,3.75
2023-05-13T13:50:12.225Z,6.25
2023-05-13T13:52:40.301Z,3.28
2023-05-13T13:55:09.395Z,3.45
2023-05-13T13:57:37.349Z,4.30
2023-05-13T14:00:07.103Z,3.70
2023-05-13T14:02:36.592Z,3.17
2023-05-13T14:05:04.890Z,3.08
2023-05-13T14:07:32.945Z,2.65
2023-05-13T14:10:01.593Z,4.78
2023-05-13T14:12:29.841Z,1.70
2023-05-13T14:14:57.908Z,2.47
2023-05-13T14:17:25.994Z,1.90
2023-05-13T14:19:55.865Z,3.00
2023-05-13T14:22:24.501Z,4.18
2023-05-13T14:24:53.139Z,2.20
2023-05-13T14:27:21.983Z,3.25
2023-05-13T14:29:50.250Z,11.18
2023-05-13T14:32:18.264Z,12.77
2023-05-13T14:34:46.382Z,14.52
2023-05-13T14:37:15.859Z,6.57
2023-05-13T14:39:43.847Z,4.68
2023-05-13T14:42:12.558Z,3.30
2023-05-13T14:44:41.588Z,5.70
2023-05-13T14:47:09.902Z,2.03
2023-05-13T14:49:38.052Z,3.13
2023-05-13T14:52:06.554Z,2.13
2023-05-13T14:54:37.818Z,6.37
2023-05-13T14:57:07.422Z,4.63
2023-05-13T14:59:35.576Z,2.03
2023-05-13T15:02:04.552Z,6.93
2023-05-13T15:04:32.588Z,2.27
2023-05-13T15:07:00.686Z,21.03
2023-05-13T15:09:28.823Z,2.00
2023-05-13T15:11:58.269Z,3.90
2023-05-13T15:14:26.556Z,5.20
2023-05-13T15:16:54.749Z,5.70
2023-05-13T15:19:22.751Z,5.87
2023-05-13T15:21:51.019Z,5.70
2023-05-13T15:24:19.141Z,4.50
2023-05-13T15:26:49.389Z,4.28
2023-05-13T15:29:18.911Z,3.67
2023-05-13T15:31:47.025Z,5.22
2023-05-13T15:34:14.995Z,3.10
2023-05-13T15:36:43.027Z,4.63
2023-05-13T15:39:11.232Z,4.35
2023-05-13T15:41:40.543Z,4.13
2023-05-13T15:44:08.550Z,3.40
2023-05-13T15:46:38.189Z,3.83
2023-05-13T15:49:06.587Z,3.45
2023-05-13T15:51:35.567Z,5.05
2023-05-13T15:54:04.292Z,5.15
2023-05-13T15:56:32.454Z,2.40
2023-05-13T15:59:00.490Z,2.13
2023-05-13T16:01:28.573Z,3.47
2023-05-13T16:03:58.070Z,2.23
2023-05-13T16:06:26.228Z,5.50
2023-05-13T16:08:56.398Z,3.13
2023-05-13T16:11:24.848Z,5.57
2023-05-13T16:13:53.417Z,5.07
2023-05-13T16:16:21.633Z,3.37
2023-05-13T16:18:50.181Z,4.77
2023-05-13T16:21:20.252Z,9.90
2023-05-13T16:23:48.364Z,19.60
2023-05-13T16:26:16.347Z,64.57
2023-05-13T16:28:44.434Z,77.70
2023-05-13T16:31:12.662Z,44.63
2023-05-13T16:33:40.864Z,46.00
2023-05-13T16:36:11.168Z,39.83
2023-05-13T16:38:41.631Z,26.57
2023-05-13T16:41:09.886Z,21.70
2023-05-13T16:43:37.948Z,22.90
2023-05-13T16:46:06.159Z,21.70
2023-05-13T16:48:34.477Z,24.43
2023-05-13T16:51:02.518Z,23.17
2023-05-13T16:53:30.874Z,22.73
2023-05-13T16:56:00.843Z,25.93
2023-05-13T16:58:28.859Z,24.00
2023-05-13T17:00:59.110Z,26.93
2023-05-13T17:03:27.737Z,51.70
2023-05-13T17:05:55.859Z,64.93
2023-05-13T17:08:24.464Z,52.60
2023-05-13T17:10:52.552Z,45.47
2023-05-13T17:13:22.146Z,32.20
2023-05-13T17:15:50.253Z,25.63
2023-05-13T17:18:18.230Z,14.53
2023-05-13T17:20:46.444Z,18.57
2023-05-13T17:23:16.716Z,15.87
2023-05-13T17:25:44.771Z,13.07
2023-05-13T17:28:12.844Z,13.10
2023-05-13T17:30:42.198Z,10.47
2023-05-13T17:33:10.319Z,11.77
2023-05-13T17:35:38.635Z,10.23
2023-05-13T17:38:07.070Z,12.60
2023-05-13T17:40:35.210Z,8.63
2023-05-13T17:43:04.009Z,10.83
2023-05-13T17:45:32.057Z,9.80
2023-05-13T17:48:01.617Z,7.57
2023-05-13T17:50:30.436Z,9.23
2023-05-13T17:52:58.623Z,9.30
2023-05-13T17:55:26.864Z,15.60
2023-05-13T17:57:55.671Z,9.97
2023-05-13T18:00:24.875Z,13.03
2023-05-13T18:02:53.108Z,11.13
2023-05-13T18:05:29.012Z,11.13
2023-05-13T18:08:35.807Z,10.80
2023-05-13T18:11:06.686Z,10.23
2023-05-13T18:13:35.907Z,13.07
2023-05-13T18:16:05.976Z,14.77
2023-05-13T18:18:34.003Z,12.53
2023-05-13T18:21:03.384Z,10.80
2023-05-13T18:23:32.611Z,10.10
2023-05-13T18:26:00.676Z,11.93
2023-05-13T18:28:28.665Z,12.20
2023-05-13T18:30:56.643Z,11.50
2023-05-13T18:33:24.665Z,13.93
2023-05-13T18:35:53.141Z,14.97
2023-05-13T18:38:22.653Z,15.07
2023-05-13T18:40:50.727Z,12.63
2023-05-13T18:43:18.738Z,13.03
2023-05-13T18:45:46.840Z,18.87
2023-05-13T18:48:14.906Z,19.37
2023-05-13T18:50:42.971Z,15.30
2023-05-13T18:53:11.024Z,18.37
2023-05-13T18:55:40.541Z,15.50
2023-05-13T18:58:08.613Z,15.30
2023-05-13T19:00:37.409Z,14.10
2023-05-13T19:03:05.756Z,20.23
2023-05-13T19:05:33.893Z,15.80
2023-05-13T19:08:01.900Z,13.43
2023-05-13T19:10:29.943Z,15.93
2023-05-13T19:12:59.420Z,16.43
2023-05-13T19:15:27.492Z,16.60
2023-05-13T19:17:55.561Z,18.83
2023-05-13T19:20:24.168Z,18.53
2023-05-13T19:22:52.343Z,23.60
2023-05-13T19:25:20.958Z,26.27
2023-05-13T19:27:49.329Z,18.97
2023-05-13T19:30:18.780Z,22.43
2023-05-13T19:32:46.953Z,26.63
2023-05-13T19:35:15.055Z,23.63
2023-05-13T19:37:43.085Z,20.57
2023-05-13T19:40:11.984Z,21.57
2023-05-13T19:42:39.961Z,24.60
2023-05-13T19:45:10.569Z,22.63
2023-05-13T19:47:40.425Z,26.60
2023-05-13T19:50:09.050Z,25.67
2023-05-13T19:52:37.214Z,26.87
2023-05-13T19:55:06.080Z,31.07
2023-05-13T19:57:35.120Z,25.10
2023-05-13T20:00:05.445Z,25.90
2023-05-13T20:02:36.623Z,24.87
2023-05-13T20:05:08.084Z,32.73
2023-05-13T20:07:36.348Z,28.63
2023-05-13T20:10:04.777Z,27.77
2023-05-13T20:12:33.412Z,31.50
2023-05-13T20:15:01.947Z,26.00
2023-05-13T20:17:30.279Z,26.17
2023-05-13T20:19:58.417Z,25.77
2023-05-13T20:22:27.917Z,29.93
2023-05-13T20:24:55.961Z,26.83
2023-05-13T20:27:23.951Z,29.63
2023-05-13T20:29:52.107Z,30.60
2023-05-13T20:32:24.603Z,35.73
2023-05-13T20:34:54.493Z,29.20
2023-05-13T20:37:23.906Z,30.67
2023-05-13T20:39:54.034Z,30.63
2023-05-13T20:42:22.761Z,29.23
2023-05-13T20:44:50.893Z,27.90
2023-05-13T20:47:18.869Z,33.50
2023-05-13T20:49:46.847Z,30.77
2023-05-13T20:52:14.983Z,31.50
2023-05-13T20:54:43.055Z,35.33
2023-05-13T20:57:12.373Z,39.17
2023-05-13T20:59:40.594Z,34.37
2023-05-13T21:02:08.640Z,32.90
2023-05-13T21:04:36.647Z,36.60
2023-05-13T21:07:06.681Z,33.80
2023-05-13T21:09:34.768Z,27.70
2023-05-13T21:12:02.906Z,27.07
2023-05-13T21:14:32.281Z,29.43
2023-05-13T21:17:03.072Z,31.43
2023-05-13T21:19:31.357Z,32.50
2023-05-13T21:22:01.531Z,29.80
2023-05-13T21:24:29.547Z,31.70
2023-05-13T21:26:57.629Z,29.27
2023-05-13T21:29:25.698Z,31.37
2023-05-13T21:31:54.986Z,34.70
2023-05-13T21:34:23.092Z,29.70
2023-05-13T21:36:51.254Z,34.00
2023-05-13T21:39:19.279Z,30.17
2023-05-13T21:41:47.696Z,34.57
2023-05-13T21:44:16.175Z,31.23
2023-05-13T21:46:44.218Z,28.20
2023-05-13T21:49:13.719Z,32.97
2023-05-13T21:51:41.811Z,31.53
2023-05-13T21:54:09.842Z,34.77
2023-05-13T21:56:37.883Z,36.10
2023-05-13T21:59:05.936Z,37.43
2023-05-13T22:01:34.175Z,39.47
2023-05-13T22:04:02.246Z,38.37
2023-05-13T22:06:31.792Z,37.73
2023-05-13T22:09:01.119Z,33.33
2023-05-13T22:11:29.204Z,38.50
2023-05-13T22:13:57.728Z,35.03
2023-05-13T22:16:25.814Z,34.10
2023-05-13T22:18:55.751Z,37.67
2023-05-13T22:21:23.805Z,35.53
2023-05-13T22:23:53.782Z,27.63
2023-05-13T22:26:21.807Z,32.43
2023-05-13T22:28:49.883Z,30.53
2023-05-13T22:31:18.128Z,29.57
2023-05-13T22:33:48.115Z,30.10
2023-05-13T22:36:16.146Z,31.70
2023-05-13T22:38:44.158Z,33.83
2023-05-13T22:41:13.819Z,32.40
2023-05-13T22:43:41.823Z,29.73
2023-05-13T22:46:09.931Z,37.13
2023-05-13T22:48:37.904Z,29.63
2023-05-13T22:51:05.872Z,30.80
2023-05-13T22:53:33.863Z,32.20
2023-05-13T22:56:01.895Z,31.00
2023-05-13T22:58:31.312Z,30.60
2023-05-13T23:00:59.318Z,35.03
2023-05-13T23:03:27.276Z,31.10
2023-05-13T23:05:56.483Z,32.50
2023-05-13T23:08:24.570Z,30.67
2023-05-13T23:10:52.516Z,33.73
2023-05-13T23:13:20.839Z,30.60
2023-05-13T23:15:50.525Z,29.10
2023-05-13T23:18:18.614Z,27.87
2023-05-13T23:20:50.683Z,32.33
2023-05-13T23:23:18.748Z,30.63
2023-05-13T23:25:46.954Z,31.57
2023-05-13T23:28:15.330Z,26.17
2023-05-13T23:30:44.008Z,27.20
2023-05-13T23:33:13.368Z,27.80
2023-05-13T23:35:41.348Z,27.47
2023-05-13T23:38:09.472Z,29.40
2023-05-13T23:40:37.556Z,26.33
2023-05-13T23:43:05.629Z,26.07
2023-05-13T23:45:33.633Z,29.97
2023-05-13T23:48:01.719Z,23.47
2023-05-13T23:50:31.094Z,28.20
2023-05-13T23:52:59.029Z,35.93
2023-05-13T23:55:27.059Z,27.60
2023-05-13T23:57:55.023Z,27.47
